Bewolking Meer informatie Parkstad Weather Satellite


Neerslagradar Meer informatie Parkstad Rain Snow Radar


Onweersbuien Meer informatie Parkstad Lighntning


24/7 Weercamera Meer informatie Parkstad Weathercam


Natuurbrandrisico
CBI







Mist Van: 27-02-2021 00:00 tot: 10:00 Waarschuwing voor Parkstad (045): Mist  Niveau: Geel. info button

METAR rapporten vliegvelden

   
EHAM - Amsterdam
Gewijzigd: 27-02-2021 01:25
Patches of, Mist, Licht bewolkt  
Patches of, Mist, Licht bewolkt  
   Wind: NW 3.7 km/h
Wind: NW 3.7 km/h
Temperatuur: 1°C
Dauwpunt: 1°C
Vochtigheid: 100%
Barometer: 1038 hPa
Satelliet beelden: Licht bewolkt
Zicht: 1 km
Bewolking: Licht bewolkt 122 m
EHAM 270025Z 31002KT 0800 R18C/0450N R27/0500N R18R///// R06/1900N BCFG FEW004 01/01 Q1038 TEMPO 1500
EBAW - Antwerpen
Gewijzigd: 27-02-2021 01:20
Helder  
Helder  
   Wind: Noorden 3.7 km/h
Wind: Noorden 3.7 km/h
Temperatuur: 1°C
Dauwpunt: 0°C
Vochtigheid: 93%
Barometer: 1039 hPa
Satelliet beelden: Helder
Zicht: 5 km
Bewolking: Helder
EBAW 270020Z AUTO 36002KT 4800 // NCD 01/00 Q1039
EGLL - London
Gewijzigd: 27-02-2021 01:20
Helder  
Helder  
   Wind: WNW 1.9 km/h
Wind: WNW 1.9 km/h
Temperatuur: 4°C
Dauwpunt: 1°C
Vochtigheid: 81%
Barometer: 1040 hPa
Satelliet beelden: Helder
Zicht: meer dan 10 km
Bewolking: Helder
EGLL 270020Z AUTO 30001KT 9999 NCD 04/01 Q1040
ELLX - Luxemburg
Gewijzigd: 27-02-2021 01:20
Helder  
Helder  
   Wind: NNO 18.5 km/h
Wind: NNO 18.5 km/h
Temperatuur: 3°C
Voelt als: -1°C
Dauwpunt: 0°C
Vochtigheid: 81%
Barometer: 1036 hPa
Satelliet beelden: Helder
Zicht: meer dan 10 km
Bewolking: Helder
ELLX 270020Z AUTO 02010KT 9999 NCD 03/M00 Q1036 NOSIG
EDDT - Berlijn
Gewijzigd: 09-11-2020 07:50
Verouderd
Nevel, Bewolking  
Nevel, Bewolking  
   Wind: Oosten 11.1 km/h
Wind: Oosten 11.1 km/h
Temperatuur: 6°C
Voelt als: 4°C
Dauwpunt: 5°C
Vochtigheid: 93%
Barometer: 1027 hPa
Satelliet beelden: Bewolking
Zicht: 3 km
Bewolking: Bewolking 91 m
EDDT 090650Z 09006KT 050V120 3000 BR OVC003 06/05 Q1027
EDDM - München
Gewijzigd: 27-02-2021 01:50
Grotendeels bewolkt  
Grotendeels bewolkt  
   Wind: Noorden 13 km/h
Wind: Noorden 13 km/h
Temperatuur: 4°C
Voelt als: 1°C
Dauwpunt: 2°C
Vochtigheid: 87%
Barometer: 1032 hPa
Satelliet beelden: Grotendeels bewolkt
Zicht: meer dan 10 km
Bewolking: Licht bewolkt 335 m,
Gedeeltelijk bewolkt 457 m,
Grotendeels bewolkt 671 m
EDDM 270050Z 35007KT 9999 FEW011 SCT015 BKN022 04/02 Q1032 NOSIG
LFPO - Parijs
Gewijzigd: 27-02-2021 01:30
Helder  
Helder  
   Wind: NO 16.7 km/h
Wind: NO 16.7 km/h
Temperatuur: 5°C
Voelt als: 2°C
Dauwpunt: 1°C
Vochtigheid: 76%
Barometer: 1038 hPa
Zicht: meer dan 10 km
Bewolking: Helder
LFPO 270030Z 04009KT CAVOK 05/01 Q1038 NOSIG
EDDL - Düsseldorf
Gewijzigd: 27-02-2021 01:50
Grotendeels bewolkt  
Grotendeels bewolkt  
   Wind: varieert 3.7 km/h
Wind: varieert 3.7 km/h
Temperatuur: 1°C
Dauwpunt: 1°C
Vochtigheid: 100%
Barometer: 1038 hPa
Satelliet beelden: Grotendeels bewolkt
Zicht: meer dan 10 km
Bewolking: Grotendeels bewolkt 244 m
EDDL 270050Z VRB02KT 9999 BKN008 01/01 Q1038 NOSIG
EDDK - Köln/Bonn Duitsland
Gewijzigd: 27-02-2021 01:50
Licht bewolkt  
Licht bewolkt  
   Wind: NW 3.7 km/h
Wind: NW 3.7 km/h
Temperatuur: 1°C
Dauwpunt: 0°C
Vochtigheid: 93%
Barometer: 1037 hPa
Satelliet beelden: Licht bewolkt
Zicht: meer dan 10 km
Bewolking: Licht bewolkt 914 m
EDDK 270050Z 32002KT 9999 FEW030 01/M00 Q1037 NOSIG
TNCA - Oranjestad Aruba
Gewijzigd: 27-02-2021 01:00
Licht bewolkt  
Licht bewolkt  
   Wind: Oosten 29.6 km/h
Wind: Oosten 29.6 km/h
Temperatuur: 26°C
Dauwpunt: 20°C
Vochtigheid: 70%
Barometer: 1012 hPa
Satelliet beelden: Licht bewolkt
Zicht: meer dan 10 km
Bewolking: Licht bewolkt 610 m
TNCA 270000Z 08016KT 9999 FEW020 26/20 Q1012 NOSIG
TNCC - Willemstad Curacao
Gewijzigd: 27-02-2021 01:00
Licht bewolkt  
Licht bewolkt  
   Wind: Oosten 24.1 km/h
Wind: Oosten 24.1 km/h
Temperatuur: 26°C
Dauwpunt: 21°C
Vochtigheid: 74%
Barometer: 1012 hPa
Satelliet beelden: Licht bewolkt
Zicht: meer dan 10 km
Bewolking: Licht bewolkt 579 m
TNCC 270000Z 08013KT 9999 FEW019 26/21 Q1012 NOSIG=
LEAL - La Nucia Spanje
Gewijzigd: 27-02-2021 01:30
Gedeeltelijk bewolkt  
Gedeeltelijk bewolkt  
   Wind: ONO 16.7 km/h
Wind: ONO 16.7 km/h
Temperatuur: 13°C
Dauwpunt: 8°C
Vochtigheid: 72%
Barometer: 1028 hPa
Satelliet beelden: Gedeeltelijk bewolkt
Zicht: meer dan 10 km
Bewolking: Licht bewolkt 549 m,
Gedeeltelijk bewolkt 762 m
LEAL 270030Z 07009KT 9999 FEW018 SCT025 13/08 Q1028 NOSIG

Script ontwikkeld door  Saratoga-weather.org Aangepast voor de template door  Weerstation Leuven

U vindt ons ook hier:

Het Weer Aktueel

WOW Nederland KNMI

Vereniging voor Weerkunde en Klimatologie

UK Met Office Weather Observation Website (WOW)

WeatherCloud

Weather Underground

Awekas

MeteoMap.Cloud

HAMweather, WeatherForYou, PWS Weather

Citizen Weather Observer Program (CWOP)

Apparatuur in gebruik:

Hardwareleverancier
Weerhuisje

Weerstation
Vantage Pro2+ UV

Weercomputer's
alix3d2 & wl330n

Weerprogramma's
Smartbedded

Satelliet NOAA's
WRX137 & KX137

Satelliet Eumetsat
Ayecka SR1 & Triax

Bliksemdetectie
Boltek StormTracker

Webleverancier
F-Service

Weerhuisje

Vantage Pro2+ UV

alix3d2 & wl330n

Smartbedded

WRX137 & KX137

Ayecka SR1 & Triax

Boltek StormTracker

F-Service